Time;durP1;ratioP1;P1;durP2;ratioP2;P2;SDS_P1;SDS_P2;PMS_P1;PMS_P2;Temp;Humidity;BMP_temperature;BMP_pressure;BME280_temperature;BME280_humidity;BME280_pressure;Samples;Min_cycle;Max_cycle;Signal;HPM_P1;HPM_P2
2023/08/12 00:01:51;;;;;;;14.00;6.38;;;19.40;99.90;;;;;;5071620;28;20043;-58
2023/08/12 00:04:17;;;;;;;7.95;4.90;;;19.40;99.90;;;;;;5088901;28;20036;-58
2023/08/12 00:06:43;;;;;;;9.00;5.95;;;19.40;99.90;;;;;;5074439;28;20052;-58
2023/08/12 00:09:11;;;;;;;9.05;5.57;;;19.40;99.90;;;;;;5069613;28;20032;-57
2023/08/12 00:11:37;;;;;;;8.07;5.38;;;19.40;99.90;;;;;;5086478;28;20044;-58
2023/08/12 00:14:04;;;;;;;6.88;4.88;;;19.40;99.90;;;;;;5072713;28;20040;-58
2023/08/12 00:16:29;;;;;;;10.20;5.43;;;19.40;99.90;;;;;;5088742;28;20040;-57
2023/08/12 00:18:55;;;;;;;10.25;5.75;;;19.30;99.90;;;;;;5063099;28;20326;-54
2023/08/12 00:21:21;;;;;;;7.85;5.80;;;19.30;99.90;;;;;;5081380;28;20040;-58
2023/08/12 00:23:49;;;;;;;9.23;5.38;;;19.30;99.90;;;;;;5068578;28;20555;-58
2023/08/12 00:26:15;;;;;;;7.72;4.97;;;19.30;99.90;;;;;;5073332;28;20044;-58
2023/08/12 00:28:41;;;;;;;8.65;4.85;;;19.30;99.90;;;;;;5067190;28;20055;-55
2023/08/12 00:31:07;;;;;;;7.22;5.25;;;19.30;99.90;;;;;;5068291;28;20028;-58
2023/08/12 00:33:33;;;;;;;10.93;5.35;;;19.30;99.90;;;;;;5069217;28;20443;-58
2023/08/12 00:35:59;;;;;;;10.20;5.85;;;19.30;99.90;;;;;;5058760;28;20075;-58
2023/08/12 00:38:24;;;;;;;10.35;5.55;;;19.30;99.90;;;;;;5067572;28;20078;-58
2023/08/12 00:40:50;;;;;;;9.13;5.60;;;19.30;99.90;;;;;;5092722;28;20053;-58
2023/08/12 00:43:16;;;;;;;8.45;4.85;;;19.20;99.90;;;;;;5072637;28;20111;-57
2023/08/12 00:45:42;;;;;;;12.88;6.15;;;19.20;99.90;;;;;;5075787;28;20044;-57
2023/08/12 00:48:09;;;;;;;8.60;5.82;;;19.20;99.90;;;;;;5039785;28;20036;-58
2023/08/12 00:50:37;;;;;;;11.98;6.25;;;19.20;99.90;;;;;;5062131;28;20442;-58
2023/08/12 00:53:05;;;;;;;10.30;6.70;;;19.20;99.90;;;;;;5059070;28;20044;-57
2023/08/12 00:55:33;;;;;;;9.23;5.70;;;19.10;99.90;;;;;;5085821;28;20032;-54
2023/08/12 00:57:58;;;;;;;11.23;6.00;;;19.10;99.90;;;;;;5067843;28;20036;-57
2023/08/12 01:00:24;;;;;;;7.43;5.93;;;19.10;99.90;;;;;;5068718;28;20143;-56
2023/08/12 01:02:51;;;;;;;12.40;5.97;;;19.10;99.90;;;;;;5070305;28;20081;-58
2023/08/12 01:05:18;;;;;;;7.75;5.60;;;19.10;99.90;;;;;;5087929;28;20043;-58
2023/08/12 01:07:46;;;;;;;9.60;5.35;;;19.10;99.90;;;;;;5070672;28;20184;-58
2023/08/12 01:10:15;;;;;;;8.38;5.68;;;19.00;99.90;;;;;;5069910;28;20556;-56
2023/08/12 01:12:57;;;;;;;9.75;5.28;;;19.10;99.90;;;;;;5067699;28;20052;-58
2023/08/12 01:15:26;;;;;;;7.85;4.80;;;19.00;99.90;;;;;;5082595;28;20044;-58
2023/08/12 01:17:55;;;;;;;10.73;5.88;;;19.00;99.90;;;;;;5081256;28;20431;-58
2023/08/12 01:20:25;;;;;;;10.15;5.30;;;19.00;99.90;;;;;;5069100;28;20047;-57
2023/08/12 01:23:11;;;;;;;7.65;6.00;;;19.00;99.90;;;;;;5075032;28;20128;-57
2023/08/12 01:25:37;;;;;;;10.98;6.50;;;19.00;99.90;;;;;;5081472;28;20059;-57
2023/08/12 01:28:03;;;;;;;7.65;4.97;;;19.00;99.90;;;;;;5074595;28;20043;-58
2023/08/12 01:30:29;;;;;;;6.82;5.40;;;18.90;99.90;;;;;;5083872;28;20554;-57
2023/08/12 01:33:13;;;;;;;10.70;6.00;;;18.90;99.90;;;;;;5087693;28;20509;-58
2023/08/12 01:35:39;;;;;;;;;;;18.90;99.90;;;;;;5072280;28;20047;-57
2023/08/12 01:38:06;;;;;;;9.18;5.75;;;18.80;99.90;;;;;;5087473;28;19920;-57
2023/08/12 01:40:34;;;;;;;10.57;6.28;;;18.80;99.90;;;;;;5082636;28;20192;-56
2023/08/12 01:43:01;;;;;;;9.30;6.35;;;18.80;99.90;;;;;;5070674;28;20048;-58
2023/08/12 01:45:27;;;;;;;7.18;5.07;;;18.80;99.90;;;;;;5054123;28;20102;-58
2023/08/12 01:47:52;;;;;;;7.38;5.85;;;18.80;99.90;;;;;;5071882;28;20576;-58
2023/08/12 01:50:19;;;;;;;8.27;6.10;;;18.80;99.90;;;;;;5071814;28;20356;-58
2023/08/12 01:52:45;;;;;;;10.13;5.50;;;18.70;99.90;;;;;;5087073;28;20036;-58
2023/08/12 01:55:10;;;;;;;9.70;6.35;;;18.70;99.90;;;;;;5066415;28;20487;-58
2023/08/12 01:57:36;;;;;;;9.95;6.10;;;18.70;99.90;;;;;;5066532;28;20055;-58
2023/08/12 02:00:02;;;;;;;8.45;5.53;;;18.70;99.90;;;;;;5085882;28;20033;-58
2023/08/12 02:02:28;;;;;;;10.57;5.93;;;18.70;99.90;;;;;;5064432;28;20847;-58
2023/08/12 02:04:54;;;;;;;9.65;6.88;;;18.80;99.90;;;;;;5068153;28;20704;-58
2023/08/12 02:07:19;;;;;;;10.52;6.35;;;18.80;99.90;;;;;;5063658;28;20044;-58
2023/08/12 02:09:45;;;;;;;9.80;6.45;;;18.80;99.90;;;;;;5072501;28;20068;-58
2023/08/12 02:12:10;;;;;;;9.98;6.30;;;18.80;99.90;;;;;;5088944;28;20043;-58
2023/08/12 02:14:36;;;;;;;9.52;6.55;;;18.80;99.90;;;;;;5087374;28;20145;-58
2023/08/12 02:17:05;;;;;;;8.48;6.50;;;18.80;99.90;;;;;;5058473;28;20043;-58
2023/08/12 02:19:32;;;;;;;7.03;5.78;;;18.80;99.90;;;;;;5073022;28;20123;-59
2023/08/12 02:21:59;;;;;;;11.32;7.43;;;18.90;99.90;;;;;;5064223;28;20086;-58
2023/08/12 02:24:24;;;;;;;10.35;7.25;;;18.90;99.90;;;;;;5073594;28;20101;-58
2023/08/12 02:26:50;;;;;;;9.63;6.65;;;18.80;99.90;;;;;;5090185;28;20249;-57
2023/08/12 02:29:39;;;;;;;11.18;6.43;;;18.90;99.90;;;;;;5090111;28;20107;-58
2023/08/12 02:32:05;;;;;;;12.60;7.95;;;18.90;99.90;;;;;;5067206;28;20478;-56
2023/08/12 02:34:31;;;;;;;8.80;6.30;;;18.90;99.90;;;;;;5072458;28;20055;-59
2023/08/12 02:36:56;;;;;;;11.48;7.43;;;18.90;99.90;;;;;;5085802;28;20031;-57
2023/08/12 02:39:22;;;;;;;12.48;7.55;;;18.90;99.90;;;;;;5057761;28;20799;-58
2023/08/12 02:41:52;;;;;;;10.77;7.22;;;18.90;99.90;;;;;;5074287;28;20060;-58
2023/08/12 02:44:18;;;;;;;12.65;7.07;;;18.90;99.90;;;;;;5053189;28;20028;-57
2023/08/12 02:46:44;;;;;;;10.45;7.18;;;18.90;99.90;;;;;;5077011;28;20630;-56
2023/08/12 02:49:09;;;;;;;13.48;7.10;;;18.90;99.90;;;;;;5078958;28;20036;-58
2023/08/12 02:51:35;;;;;;;12.05;6.68;;;18.90;99.90;;;;;;5053849;28;20068;-58
2023/08/12 02:54:01;;;;;;;10.50;6.53;;;19.00;99.90;;;;;;5073177;28;20044;-57
2023/08/12 02:56:26;;;;;;;12.20;7.05;;;19.00;99.90;;;;;;5069782;28;20136;-57
2023/08/12 02:58:52;;;;;;;13.40;7.65;;;19.00;99.90;;;;;;5050012;28;20055;-57
2023/08/12 03:01:18;;;;;;;10.25;7.78;;;19.00;99.90;;;;;;5086330;28;20036;-58
2023/08/12 03:03:44;;;;;;;10.10;6.80;;;19.00;99.90;;;;;;5068807;28;20452;-57
2023/08/12 03:06:32;;;;;;;11.48;6.82;;;19.00;99.90;;;;;;5088979;28;20044;-59
2023/08/12 03:08:58;;;;;;;12.63;7.97;;;19.00;99.90;;;;;;5071002;28;20040;-58
2023/08/12 03:11:24;;;;;;;9.35;7.22;;;19.00;99.90;;;;;;5074831;28;20082;-58
2023/08/12 03:13:50;;;;;;;10.65;7.20;;;19.00;99.90;;;;;;5075049;28;20071;-58
2023/08/12 03:16:16;;;;;;;13.60;7.60;;;19.00;99.90;;;;;;5067951;28;20043;-58
2023/08/12 03:18:41;;;;;;;11.43;7.82;;;19.00;99.90;;;;;;5080200;28;20044;-58
2023/08/12 03:21:08;;;;;;;12.43;7.68;;;19.00;99.90;;;;;;5064754;28;20052;-57
2023/08/12 03:23:38;;;;;;;9.77;7.38;;;19.00;99.90;;;;;;5088263;28;20044;-58
2023/08/12 03:26:04;;;;;;;13.18;7.72;;;19.10;99.90;;;;;;5089257;28;20052;-58
2023/08/12 03:28:30;;;;;;;12.70;7.78;;;19.00;99.90;;;;;;5070366;28;20127;-56
2023/08/12 03:30:56;;;;;;;15.57;8.43;;;19.10;99.90;;;;;;5089557;28;20040;-59
2023/08/12 03:33:22;;;;;;;13.60;8.18;;;19.00;99.90;;;;;;5069636;28;20047;-59
2023/08/12 03:35:49;;;;;;;12.70;8.15;;;19.00;99.90;;;;;;5089345;28;20035;-59
2023/08/12 03:38:15;;;;;;;13.43;9.38;;;19.00;99.90;;;;;;5082913;28;20095;-58
2023/08/12 03:40:41;;;;;;;11.05;7.15;;;19.00;99.90;;;;;;5088742;28;20036;-58
2023/08/12 03:43:07;;;;;;;14.95;9.13;;;19.00;99.90;;;;;;5086827;28;20040;-58
2023/08/12 03:45:39;;;;;;;12.18;8.90;;;19.00;99.90;;;;;;5062726;28;20052;-59
2023/08/12 03:48:05;;;;;;;13.63;8.73;;;19.00;99.90;;;;;;5086750;28;20495;-57
2023/08/12 03:50:34;;;;;;;14.68;8.80;;;19.00;99.90;;;;;;5086319;28;20036;-58
2023/08/12 03:53:00;;;;;;;13.40;8.65;;;19.00;99.90;;;;;;5068010;28;20043;-58
2023/08/12 03:55:26;;;;;;;13.68;9.15;;;19.00;99.90;;;;;;5066730;28;20055;-58
2023/08/12 03:57:52;;;;;;;14.23;8.55;;;19.00;99.90;;;;;;5070780;28;20108;-59
2023/08/12 04:00:17;;;;;;;14.70;9.05;;;19.00;99.90;;;;;;5070208;28;20044;-59
2023/08/12 04:02:43;;;;;;;10.77;7.60;;;19.10;99.90;;;;;;5087802;28;20032;-57
2023/08/12 04:05:09;;;;;;;15.80;9.15;;;19.10;99.90;;;;;;5071543;28;20511;-59
2023/08/12 04:07:38;;;;;;;14.20;9.07;;;19.10;99.90;;;;;;5063183;28;20049;-58
2023/08/12 04:10:04;;;;;;;12.60;7.95;;;19.10;99.90;;;;;;5085221;28;20036;-58
2023/08/12 04:12:44;;;;;;;14.10;9.05;;;19.10;99.90;;;;;;5072118;28;20040;-58
2023/08/12 04:15:10;;;;;;;13.70;9.45;;;19.10;99.90;;;;;;5084690;28;20044;-58
2023/08/12 04:17:36;;;;;;;11.75;7.75;;;19.10;99.90;;;;;;5061852;28;20049;-57
2023/08/12 04:20:05;;;;;;;12.70;8.40;;;19.10;99.90;;;;;;5084018;28;20047;-58
2023/08/12 04:22:31;;;;;;;14.48;8.95;;;19.10;99.90;;;;;;5069794;28;20055;-58
2023/08/12 04:24:57;;;;;;;13.27;8.90;;;19.10;99.90;;;;;;5049653;28;20048;-58
2023/08/12 04:27:22;;;;;;;10.23;8.20;;;19.10;99.90;;;;;;5067413;28;20403;-58
2023/08/12 04:29:48;;;;;;;13.15;9.38;;;19.20;99.90;;;;;;5082795;28;20036;-59
2023/08/12 04:32:14;;;;;;;14.55;8.82;;;19.20;99.90;;;;;;5070151;28;20281;-58
2023/08/12 04:34:39;;;;;;;11.23;8.50;;;19.20;99.90;;;;;;5062150;28;20558;-58
2023/08/12 04:37:05;;;;;;;14.30;8.57;;;19.20;99.90;;;;;;5085294;28;20036;-57
2023/08/12 04:39:32;;;;;;;11.48;8.65;;;19.20;99.90;;;;;;5073943;28;20076;-58
2023/08/12 04:41:58;;;;;;;12.27;9.25;;;19.20;99.90;;;;;;5087867;28;20410;-58
2023/08/12 04:44:23;;;;;;;16.77;9.95;;;19.20;99.90;;;;;;5084799;28;20050;-59
2023/08/12 04:46:50;;;;;;;11.27;8.07;;;19.20;99.90;;;;;;5084629;28;20044;-58
2023/08/12 04:49:16;;;;;;;10.13;7.55;;;19.20;99.90;;;;;;5074422;28;20035;-58
2023/08/12 04:51:41;;;;;;;12.27;7.72;;;19.20;99.90;;;;;;5087012;28;20583;-59
2023/08/12 04:54:07;;;;;;;15.80;8.52;;;19.20;99.90;;;;;;5084557;28;20035;-58
2023/08/12 04:56:36;;;;;;;11.18;8.40;;;19.20;99.90;;;;;;5089073;28;20293;-58
2023/08/12 04:59:02;;;;;;;12.18;8.00;;;19.30;99.90;;;;;;5068390;28;20044;-58
2023/08/12 05:01:28;;;;;;;10.10;7.30;;;19.30;99.90;;;;;;5078712;28;20085;-58
2023/08/12 05:03:53;;;;;;;9.57;7.32;;;19.30;99.90;;;;;;5042496;28;20385;-57
2023/08/12 05:06:19;;;;;;;11.98;7.43;;;19.30;99.90;;;;;;5087504;28;20066;-59
2023/08/12 05:08:45;;;;;;;16.52;9.15;;;19.40;99.90;;;;;;5087251;28;20139;-58
2023/08/12 05:11:11;;;;;;;14.15;8.80;;;19.40;99.90;;;;;;5088451;28;20028;-59
2023/08/12 05:13:36;;;;;;;11.00;7.55;;;19.50;99.90;;;;;;5061289;28;20114;-58
2023/08/12 05:16:02;;;;;;;13.50;8.32;;;19.50;99.90;;;;;;5062387;28;20040;-58
2023/08/12 05:18:29;;;;;;;14.85;8.15;;;19.50;99.90;;;;;;5067431;28;20368;-59
2023/08/12 05:20:55;;;;;;;9.98;7.65;;;19.60;99.90;;;;;;5082508;28;20051;-57
2023/08/12 05:23:21;;;;;;;13.82;8.65;;;19.60;99.90;;;;;;5094517;28;20040;-58
2023/08/12 05:25:47;;;;;;;10.23;7.88;;;19.70;99.90;;;;;;5067608;28;20048;-58
2023/08/12 05:28:13;;;;;;;12.85;7.47;;;19.70;99.90;;;;;;5082509;28;20098;-59
2023/08/12 05:30:39;;;;;;;9.35;8.00;;;19.70;99.90;;;;;;5080015;28;20044;-58
2023/08/12 05:33:05;;;;;;;11.35;7.55;;;19.70;99.90;;;;;;5060466;28;20473;-58
2023/08/12 05:35:35;;;;;;;11.95;7.80;;;19.70;99.90;;;;;;5094406;28;20043;-57
2023/08/12 05:38:01;;;;;;;11.95;8.75;;;19.70;99.90;;;;;;5088879;28;20039;-59
2023/08/12 05:40:27;;;;;;;11.63;8.10;;;19.70;99.90;;;;;;5077008;28;20040;-59
2023/08/12 05:42:53;;;;;;;10.70;7.72;;;19.70;99.90;;;;;;5082048;28;20036;-58
2023/08/12 05:45:18;;;;;;;11.98;8.38;;;19.70;99.90;;;;;;5071584;28;20048;-59
2023/08/12 05:47:44;;;;;;;12.13;7.93;;;19.80;99.90;;;;;;5048101;28;20449;-58
2023/08/12 05:50:10;;;;;;;14.05;9.35;;;19.80;99.90;;;;;;5071058;28;20040;-58
2023/08/12 05:52:35;;;;;;;13.23;9.00;;;19.80;99.90;;;;;;5067485;28;20068;-59
2023/08/12 05:55:01;;;;;;;11.32;7.53;;;19.80;99.90;;;;;;5090138;28;20027;-58
2023/08/12 05:57:27;;;;;;;12.25;8.85;;;19.70;99.90;;;;;;5056298;28;20483;-59
2023/08/12 05:59:53;;;;;;;11.63;8.23;;;19.80;99.90;;;;;;5069486;28;20047;-58
2023/08/12 06:02:19;;;;;;;10.45;8.43;;;19.80;99.90;;;;;;5079552;28;20044;-57
2023/08/12 06:04:44;;;;;;;11.23;8.43;;;19.80;99.90;;;;;;5063267;28;20401;-58
2023/08/12 06:07:10;;;;;;;10.23;7.65;;;19.80;99.90;;;;;;5067431;28;20104;-59
2023/08/12 06:09:36;;;;;;;11.63;8.82;;;19.80;99.90;;;;;;5067563;28;20040;-59
2023/08/12 06:12:02;;;;;;;13.52;8.38;;;19.80;99.90;;;;;;5088156;28;20043;-58
2023/08/12 06:14:28;;;;;;;11.90;7.85;;;19.80;99.90;;;;;;5075062;28;20629;-59
2023/08/12 06:16:53;;;;;;;13.55;8.90;;;19.90;99.90;;;;;;5054451;28;20036;-59
2023/08/12 06:19:19;;;;;;;14.05;8.85;;;19.80;99.90;;;;;;5094439;28;20036;-58
2023/08/12 06:21:44;;;;;;;12.38;8.10;;;19.90;99.90;;;;;;5090301;28;20058;-58
2023/08/12 06:24:10;;;;;;;13.27;8.25;;;19.90;99.90;;;;;;5094412;28;20044;-59
2023/08/12 06:26:38;;;;;;;13.98;9.10;;;19.90;99.90;;;;;;5078116;28;21185;-59
2023/08/12 06:29:04;;;;;;;16.58;9.90;;;19.90;99.90;;;;;;5094438;28;20192;-58
2023/08/12 06:31:29;;;;;;;14.38;9.40;;;19.90;99.90;;;;;;5101082;28;20106;-59
2023/08/12 06:33:55;;;;;;;15.50;10.23;;;19.90;99.90;;;;;;5054985;28;20597;-58
2023/08/12 06:36:21;;;;;;;15.07;10.32;;;19.90;99.90;;;;;;5070795;28;20039;-57
2023/08/12 06:38:46;;;;;;;14.48;9.63;;;20.00;99.90;;;;;;5088153;28;20517;-58
2023/08/12 06:41:12;;;;;;;14.38;9.95;;;20.00;99.90;;;;;;5090772;28;20522;-56
2023/08/12 06:43:38;;;;;;;14.77;10.98;;;20.00;99.90;;;;;;5089952;28;20079;-58
2023/08/12 06:46:03;;;;;;;16.50;11.00;;;20.00;99.90;;;;;;5062871;28;20123;-58
2023/08/12 06:48:29;;;;;;;15.60;11.63;;;20.00;99.90;;;;;;5082428;28;20040;-58
2023/08/12 06:50:56;;;;;;;16.00;10.75;;;20.00;99.90;;;;;;5067060;28;20083;-58
2023/08/12 06:53:22;;;;;;;17.02;10.85;;;20.10;99.90;;;;;;5089818;28;20506;-60
2023/08/12 06:55:47;;;;;;;15.10;11.07;;;20.10;99.90;;;;;;5084314;28;20040;-57
2023/08/12 06:58:14;;;;;;;19.73;12.55;;;20.10;99.90;;;;;;5071836;28;20483;-58
2023/08/12 07:00:40;;;;;;;18.75;11.50;;;20.10;99.90;;;;;;5074613;28;20051;-59
2023/08/12 07:03:06;;;;;;;19.40;11.75;;;20.10;99.90;;;;;;5072394;28;20399;-57
2023/08/12 07:05:31;;;;;;;17.80;11.95;;;20.20;99.90;;;;;;5058498;28;20105;-59
2023/08/12 07:07:57;;;;;;;15.27;10.27;;;20.20;99.90;;;;;;5086404;28;20044;-56
2023/08/12 07:10:23;;;;;;;14.27;12.63;;;20.20;99.90;;;;;;5088672;28;20271;-58
2023/08/12 07:12:48;;;;;;;20.15;13.75;;;20.30;99.90;;;;;;5069530;28;20124;-59
2023/08/12 07:15:14;;;;;;;18.00;13.77;;;20.30;99.90;;;;;;5098249;28;20038;-59
2023/08/12 07:17:40;;;;;;;20.63;12.93;;;20.30;99.90;;;;;;5071096;28;20104;-59
2023/08/12 07:20:06;;;;;;;21.10;13.95;;;20.30;99.90;;;;;;5088183;28;20587;-57
2023/08/12 07:22:32;;;;;;;17.02;13.00;;;20.30;99.90;;;;;;5064862;28;20309;-55
2023/08/12 07:24:59;;;;;;;22.85;13.88;;;20.40;99.90;;;;;;5092457;28;20503;-59
2023/08/12 07:27:26;;;;;;;20.50;14.27;;;20.40;99.90;;;;;;5069408;28;20487;-59
2023/08/12 07:29:52;;;;;;;22.75;14.48;;;20.40;99.90;;;;;;5085457;28;20028;-59
2023/08/12 07:32:18;;;;;;;20.33;13.63;;;20.50;99.90;;;;;;5067521;28;20055;-57
2023/08/12 07:34:44;;;;;;;22.15;14.05;;;20.50;99.90;;;;;;5085035;28;20048;-59
2023/08/12 07:37:11;;;;;;;19.83;14.02;;;20.50;99.90;;;;;;5074375;28;20043;-60
2023/08/12 07:39:37;;;;;;;17.60;14.07;;;20.50;99.90;;;;;;5066435;28;20046;-59
2023/08/12 07:42:03;;;;;;;16.83;12.90;;;20.50;99.90;;;;;;5070200;28;20044;-58
2023/08/12 07:44:29;;;;;;;17.30;12.95;;;20.50;99.90;;;;;;5071937;28;20483;-58
2023/08/12 07:46:56;;;;;;;19.88;14.43;;;20.50;99.90;;;;;;5078120;28;20088;-58
2023/08/12 07:49:22;;;;;;;18.85;13.25;;;20.50;99.90;;;;;;5068669;28;20032;-59
2023/08/12 07:51:48;;;;;;;16.05;12.80;;;20.50;99.90;;;;;;5080666;28;20044;-59
2023/08/12 07:54:13;;;;;;;18.35;12.93;;;20.50;99.90;;;;;;5086604;28;20043;-57
2023/08/12 07:56:56;;;;;;;16.40;13.32;;;20.50;99.90;;;;;;5072396;28;20028;-58
2023/08/12 07:59:21;;;;;;;18.48;14.25;;;20.60;99.90;;;;;;5086601;28;20044;-59
2023/08/12 08:01:47;;;;;;;19.30;13.60;;;20.50;99.90;;;;;;5088485;28;20089;-59
2023/08/12 08:04:13;;;;;;;16.02;13.18;;;20.60;99.90;;;;;;5070716;28;20047;-59
2023/08/12 08:06:38;;;;;;;18.15;13.02;;;20.50;99.90;;;;;;5066140;28;20047;-58
2023/08/12 08:09:04;;;;;;;17.45;13.25;;;20.60;99.90;;;;;;5084379;28;20051;-58
2023/08/12 08:11:31;;;;;;;19.08;14.35;;;20.50;99.90;;;;;;5070027;28;20036;-59
2023/08/12 08:13:58;;;;;;;20.75;14.73;;;20.50;99.90;;;;;;5068437;28;20051;-59
2023/08/12 08:16:24;;;;;;;19.25;13.88;;;20.50;99.90;;;;;;5072686;28;20454;-58
2023/08/12 08:18:50;;;;;;;19.02;13.00;;;20.50;99.90;;;;;;5084813;28;20124;-59
2023/08/12 08:21:16;;;;;;;17.85;13.02;;;20.50;99.90;;;;;;5069480;28;20513;-57
2023/08/12 08:23:42;;;;;;;17.10;12.45;;;20.50;99.90;;;;;;5073295;28;20043;-59
2023/08/12 08:26:08;;;;;;;20.42;13.77;;;20.50;99.90;;;;;;5088331;28;20043;-58
2023/08/12 08:28:34;;;;;;;17.08;12.77;;;20.50;99.90;;;;;;5047712;28;20517;-59
2023/08/12 08:31:00;;;;;;;21.70;15.05;;;20.50;99.90;;;;;;5088811;28;20036;-59
2023/08/12 08:33:26;;;;;;;17.20;13.88;;;20.50;99.90;;;;;;5066665;28;20318;-58
2023/08/12 08:35:53;;;;;;;18.10;13.43;;;20.50;99.90;;;;;;5086970;28;20028;-58
2023/08/12 08:38:19;;;;;;;25.15;16.30;;;20.50;99.90;;;;;;5083580;28;20039;-59
2023/08/12 08:40:45;;;;;;;19.60;15.07;;;20.50;99.90;;;;;;5081253;28;20034;-59
2023/08/12 08:43:15;;;;;;;24.40;16.67;;;20.50;99.90;;;;;;5073074;28;20044;-59
2023/08/12 08:45:43;;;;;;;23.13;15.75;;;20.50;99.90;;;;;;5071426;28;20048;-59
2023/08/12 08:48:10;;;;;;;31.13;18.02;;;20.60;99.90;;;;;;5065878;28;20384;-59
2023/08/12 08:50:36;;;;;;;37.65;17.63;;;20.60;99.90;;;;;;5048622;28;20115;-59
2023/08/12 08:53:06;;;;;;;22.42;13.65;;;20.60;99.90;;;;;;5091843;28;20119;-58
2023/08/12 08:55:32;;;;;;;19.05;13.98;;;20.60;99.90;;;;;;5070233;28;20048;-58
2023/08/12 08:57:58;;;;;;;21.52;16.65;;;20.60;99.90;;;;;;5078194;28;20398;-57
2023/08/12 09:00:25;;;;;;;20.70;14.80;;;20.60;99.90;;;;;;5085466;28;20126;-59
2023/08/12 09:02:51;;;;;;;19.17;15.43;;;20.60;99.90;;;;;;5078052;28;20048;-59
2023/08/12 09:05:18;;;;;;;19.65;17.40;;;20.60;99.90;;;;;;5060933;28;20102;-59
2023/08/12 09:07:45;;;;;;;26.05;17.55;;;20.60;99.90;;;;;;5077828;28;20079;-59
2023/08/12 09:10:11;;;;;;;19.60;16.75;;;20.60;99.90;;;;;;5085346;28;20036;-58
2023/08/12 09:12:37;;;;;;;27.10;17.85;;;20.70;99.90;;;;;;5066181;28;20488;-57
2023/08/12 09:15:06;;;;;;;27.25;18.88;;;20.70;99.90;;;;;;5084429;28;20067;-59
2023/08/12 09:17:32;;;;;;;23.50;18.67;;;20.70;99.90;;;;;;5065949;28;20134;-59
2023/08/12 09:19:58;;;;;;;28.83;18.48;;;20.60;99.90;;;;;;5085845;28;20430;-58
2023/08/12 09:22:25;;;;;;;24.75;20.15;;;20.60;99.90;;;;;;5069936;28;20040;-59
2023/08/12 09:24:57;;;;;;;29.38;21.77;;;20.70;99.90;;;;;;5061386;28;20464;-59
2023/08/12 09:27:23;;;;;;;43.25;22.65;;;20.70;99.90;;;;;;5082694;28;20056;-58
2023/08/12 09:29:49;;;;;;;29.92;20.10;;;20.70;99.90;;;;;;5083208;28;20032;-59
2023/08/12 09:32:19;;;;;;;23.50;17.80;;;20.70;99.90;;;;;;5073058;28;20040;-58
2023/08/12 09:34:54;;;;;;;23.42;17.98;;;20.70;99.90;;;;;;5068363;28;20050;-56
2023/08/12 09:37:22;;;;;;;26.42;19.23;;;20.70;99.90;;;;;;5088389;28;20115;-58
2023/08/12 09:39:48;;;;;;;18.23;15.50;;;20.80;99.90;;;;;;5093801;28;20035;-57
2023/08/12 09:42:15;;;;;;;21.77;18.80;;;20.80;99.90;;;;;;5079966;28;20160;-59
2023/08/12 09:44:41;;;;;;;20.50;17.70;;;20.80;99.90;;;;;;5065052;28;20489;-60
2023/08/12 09:47:10;;;;;;;24.15;19.20;;;20.80;99.90;;;;;;5065618;28;20035;-58
2023/08/12 09:49:38;;;;;;;21.33;18.08;;;20.90;99.90;;;;;;5078760;28;20043;-59
2023/08/12 09:52:05;;;;;;;26.30;21.45;;;20.90;99.90;;;;;;5079855;28;20422;-59
2023/08/12 09:54:34;;;;;;;19.88;17.50;;;20.90;99.90;;;;;;5062618;28;20118;-59
2023/08/12 09:57:02;;;;;;;20.67;18.52;;;20.90;99.90;;;;;;5080970;28;20041;-59
2023/08/12 09:59:32;;;;;;;19.48;17.38;;;21.00;99.90;;;;;;5069282;28;20394;-58
2023/08/12 10:01:59;;;;;;;21.42;18.60;;;21.00;99.90;;;;;;5064140;28;20483;-58
2023/08/12 10:04:33;;;;;;;19.95;17.80;;;21.00;99.90;;;;;;5072927;28;20405;-58
2023/08/12 10:07:00;;;;;;;20.77;18.58;;;21.00;99.90;;;;;;5064875;28;20380;-58
2023/08/12 10:09:26;;;;;;;19.52;17.38;;;21.00;99.90;;;;;;5063673;28;20040;-59
2023/08/12 10:11:53;;;;;;;22.13;17.70;;;21.00;99.90;;;;;;5085160;28;20499;-58
2023/08/12 10:14:19;;;;;;;17.88;16.05;;;21.00;99.90;;;;;;5067508;28;20043;-58
2023/08/12 10:16:46;;;;;;;19.77;17.00;;;20.90;99.90;;;;;;5086381;28;20032;-59
2023/08/12 10:19:15;;;;;;;19.58;17.42;;;21.00;99.90;;;;;;5083349;28;20552;-59
2023/08/12 10:21:41;;;;;;;21.77;19.25;;;21.00;99.90;;;;;;5075843;28;20040;-58
2023/08/12 10:24:10;;;;;;;13.23;7.43;;;21.00;99.90;;;;;;5088207;28;20168;-58
2023/08/12 10:26:36;;;;;;;9.65;4.63;;;20.50;99.90;;;;;;5085103;28;20521;-59
2023/08/12 10:29:02;;;;;;;7.68;3.55;;;19.80;99.90;;;;;;5083271;28;20052;-58
2023/08/12 10:31:29;;;;;;;12.15;3.67;;;19.60;99.90;;;;;;5088306;28;20127;-57
2023/08/12 10:33:56;;;;;;;8.55;3.80;;;19.30;99.90;;;;;;5069856;28;20043;-60
2023/08/12 10:36:22;;;;;;;8.05;2.90;;;19.10;99.90;;;;;;5087399;28;20035;-60
2023/08/12 10:38:48;;;;;;;6.03;3.10;;;18.90;99.90;;;;;;5088745;28;20043;-58
2023/08/12 10:41:19;;;;;;;6.03;2.10;;;18.90;99.90;;;;;;5088588;28;20384;-58
2023/08/12 10:43:56;;;;;;;7.80;2.30;;;18.70;99.90;;;;;;5057196;28;20040;-59
2023/08/12 10:46:27;;;;;;;10.20;3.10;;;18.80;99.90;;;;;;5072065;28;20199;-60
2023/08/12 10:49:04;;;;;;;5.60;2.25;;;18.60;99.90;;;;;;5082096;28;20043;-57
2023/08/12 10:51:46;;;;;;;6.35;2.50;;;18.50;99.90;;;;;;5065700;28;20201;-57
2023/08/12 10:54:31;;;;;;;5.53;2.35;;;18.30;99.90;;;;;;5064789;28;20040;-59
2023/08/12 10:57:03;;;;;;;6.80;2.40;;;18.30;99.90;;;;;;5068652;28;20051;-60
2023/08/12 10:59:48;;;;;;;7.22;2.70;;;18.50;99.90;;;;;;5086293;28;20407;-59
2023/08/12 11:02:18;;;;;;;6.95;3.42;;;18.50;99.90;;;;;;5075572;28;20121;-60
2023/08/12 11:04:44;;;;;;;9.40;3.17;;;18.50;99.90;;;;;;5087337;28;20032;-58
2023/08/12 11:07:22;;;;;;;6.57;3.15;;;18.50;99.90;;;;;;5073626;28;20506;-59
2023/08/12 11:09:52;;;;;;;8.95;2.95;;;18.50;99.90;;;;;;5052309;28;20713;-60
2023/08/12 11:12:27;;;;;;;9.75;3.67;;;18.60;99.90;;;;;;5069486;28;20043;-59
2023/08/12 11:14:59;;;;;;;6.97;3.45;;;18.70;99.90;;;;;;5065736;28;20128;-59
2023/08/12 11:17:32;;;;;;;9.50;3.35;;;18.80;99.90;;;;;;5063762;28;20043;-60
2023/08/12 11:19:59;;;;;;;9.50;3.20;;;18.90;99.90;;;;;;5065769;28;20051;-60
2023/08/12 11:22:25;;;;;;;10.15;4.00;;;18.90;99.90;;;;;;5084308;28;20514;-59
2023/08/12 11:24:51;;;;;;;7.15;3.17;;;18.80;99.90;;;;;;5073557;28;20040;-58
2023/08/12 11:27:17;;;;;;;10.07;3.53;;;18.80;99.90;;;;;;5092828;28;20487;-58
2023/08/12 11:29:44;;;;;;;8.65;2.80;;;18.90;99.90;;;;;;5085256;28;20364;-59
2023/08/12 11:32:10;;;;;;;5.88;2.80;;;18.80;99.90;;;;;;5087976;28;20032;-59
2023/08/12 11:34:36;;;;;;;8.65;3.30;;;18.90;99.90;;;;;;5071425;28;20047;-59
2023/08/12 11:37:03;;;;;;;6.97;2.33;;;18.80;99.90;;;;;;5093368;28;20031;-58
2023/08/12 11:39:29;;;;;;;9.27;4.43;;;19.00;99.90;;;;;;5058364;28;20036;-58
2023/08/12 11:41:57;;;;;;;6.70;3.03;;;19.00;99.90;;;;;;5076407;28;20055;-59
2023/08/12 11:44:23;;;;;;;6.85;3.08;;;19.00;99.90;;;;;;5086020;28;20040;-59
2023/08/12 11:46:50;;;;;;;8.15;3.10;;;19.10;99.90;;;;;;5063965;28;20048;-60
2023/08/12 11:49:15;;;;;;;6.97;3.08;;;19.10;99.90;;;;;;5085691;28;20256;-59
2023/08/12 11:51:45;;;;;;;8.57;3.45;;;19.10;99.90;;;;;;5097326;28;20051;-59
2023/08/12 11:54:10;;;;;;;10.10;3.15;;;19.00;99.90;;;;;;5072930;28;20039;-59
2023/08/12 11:56:36;;;;;;;11.00;3.45;;;19.00;99.90;;;;;;5066436;28;20036;-61
2023/08/12 11:59:02;;;;;;;13.05;3.28;;;19.00;99.90;;;;;;5067921;28;20503;-57
2023/08/12 12:01:28;;;;;;;10.48;3.65;;;19.20;99.90;;;;;;5084975;28;20048;-59
2023/08/12 12:03:54;;;;;;;9.10;3.10;;;19.20;99.90;;;;;;5066688;28;20046;-58
2023/08/12 12:06:36;;;;;;;8.77;4.03;;;19.30;99.90;;;;;;5065411;28;20439;-58
2023/08/12 12:09:09;;;;;;;7.35;3.53;;;19.30;99.90;;;;;;5084611;28;20072;-60
2023/08/12 12:11:38;;;;;;;8.93;4.18;;;19.40;99.90;;;;;;5055185;28;20040;-58
2023/08/12 12:14:07;;;;;;;7.05;3.63;;;19.40;99.90;;;;;;5069222;28;20047;-59
2023/08/12 12:16:44;;;;;;;8.52;4.00;;;19.50;99.90;;;;;;5064927;28;20059;-57
2023/08/12 12:19:23;;;;;;;7.95;3.92;;;19.60;99.90;;;;;;5090542;28;20555;-61
2023/08/12 12:21:53;;;;;;;7.35;3.30;;;19.80;99.90;;;;;;5068455;28;20082;-58
2023/08/12 12:24:19;;;;;;;10.82;3.80;;;19.90;99.90;;;;;;5065725;28;20040;-57
2023/08/12 12:26:49;;;;;;;10.75;3.50;;;19.90;99.90;;;;;;5070349;28;20044;-57
2023/08/12 12:29:15;;;;;;;11.05;3.95;;;20.10;99.90;;;;;;5066437;28;20083;-61
2023/08/12 12:31:41;;;;;;;7.90;3.70;;;20.30;99.90;;;;;;5070341;28;20521;-60
2023/08/12 12:34:09;;;;;;;8.55;3.88;;;20.50;99.90;;;;;;5085438;28;20036;-58
2023/08/12 12:36:38;;;;;;;10.73;3.80;;;20.60;99.90;;;;;;5092968;28;20036;-57
2023/08/12 12:39:05;;;;;;;7.07;3.65;;;20.90;99.90;;;;;;5085606;28;20052;-58